sensor_id;sensor_type;location;lat;lon;timestamp;temperature;humidity
5617;DHT22;2830;50.656;7.568;2022-07-29T00:01:52;16.30;96.40
5617;DHT22;2830;50.656;7.568;2022-07-29T00:04:19;16.40;99.90
5617;DHT22;2830;50.656;7.568;2022-07-29T00:06:47;16.40;1.00
5617;DHT22;2830;50.656;7.568;2022-07-29T00:09:13;16.50;99.90
5617;DHT22;2830;50.656;7.568;2022-07-29T00:11:40;16.50;99.90
5617;DHT22;2830;50.656;7.568;2022-07-29T00:14:07;16.60;99.90
5617;DHT22;2830;50.656;7.568;2022-07-29T00:16:34;16.60;1.00
5617;DHT22;2830;50.656;7.568;2022-07-29T00:19:01;16.70;99.90
5617;DHT22;2830;50.656;7.568;2022-07-29T00:21:28;16.70;99.90
5617;DHT22;2830;50.656;7.568;2022-07-29T00:23:54;16.60;99.90
5617;DHT22;2830;50.656;7.568;2022-07-29T00:26:21;16.50;99.90
5617;DHT22;2830;50.656;7.568;2022-07-29T00:28:48;16.40;99.90
5617;DHT22;2830;50.656;7.568;2022-07-29T00:31:15;16.30;1.00
5617;DHT22;2830;50.656;7.568;2022-07-29T00:33:41;16.10;99.90
5617;DHT22;2830;50.656;7.568;2022-07-29T00:36:08;16.20;1.00
5617;DHT22;2830;50.656;7.568;2022-07-29T00:38:35;16.20;1.00
5617;DHT22;2830;50.656;7.568;2022-07-29T00:41:01;16.30;1.00
5617;DHT22;2830;50.656;7.568;2022-07-29T00:43:28;16.30;99.90
5617;DHT22;2830;50.656;7.568;2022-07-29T00:45:55;16.40;99.90
5617;DHT22;2830;50.656;7.568;2022-07-29T00:48:21;16.40;1.00
5617;DHT22;2830;50.656;7.568;2022-07-29T00:50:49;16.40;1.00
5617;DHT22;2830;50.656;7.568;2022-07-29T00:53:16;16.50;1.00
5617;DHT22;2830;50.656;7.568;2022-07-29T00:55:43;16.50;1.00
5617;DHT22;2830;50.656;7.568;2022-07-29T00:58:12;16.50;99.90
5617;DHT22;2830;50.656;7.568;2022-07-29T01:00:39;16.40;1.00
5617;DHT22;2830;50.656;7.568;2022-07-29T01:03:08;16.50;42.90
5617;DHT22;2830;50.656;7.568;2022-07-29T01:05:35;16.60;1.00
5617;DHT22;2830;50.656;7.568;2022-07-29T01:08:17;16.60;99.90
5617;DHT22;2830;50.656;7.568;2022-07-29T01:10:46;16.60;22.90
5617;DHT22;2830;50.656;7.568;2022-07-29T01:13:14;16.40;99.90
5617;DHT22;2830;50.656;7.568;2022-07-29T01:15:47;16.10;1.00
5617;DHT22;2830;50.656;7.568;2022-07-29T01:18:31;16.10;1.00
5617;DHT22;2830;50.656;7.568;2022-07-29T01:26:54;16.20;1.00
5617;DHT22;2830;50.656;7.568;2022-07-29T01:32:11;16.30;1.00
5617;DHT22;2830;50.656;7.568;2022-07-29T01:35:46;16.40;99.90
5617;DHT22;2830;50.656;7.568;2022-07-29T01:38:01;16.40;99.90
5617;DHT22;2830;50.656;7.568;2022-07-29T01:43:25;16.40;99.90
5617;DHT22;2830;50.656;7.568;2022-07-29T01:46:00;16.30;99.90
5617;DHT22;2830;50.656;7.568;2022-07-29T01:48:34;16.30;1.00
5617;DHT22;2830;50.656;7.568;2022-07-29T01:51:05;16.30;99.90
5617;DHT22;2830;50.656;7.568;2022-07-29T01:53:54;16.30;99.90
5617;DHT22;2830;50.656;7.568;2022-07-29T01:56:23;16.00;99.90
5617;DHT22;2830;50.656;7.568;2022-07-29T01:58:52;15.90;1.00
5617;DHT22;2830;50.656;7.568;2022-07-29T02:01:21;15.90;99.90
5617;DHT22;2830;50.656;7.568;2022-07-29T02:03:51;15.90;95.40
5617;DHT22;2830;50.656;7.568;2022-07-29T02:06:21;16.00;93.90
5617;DHT22;2830;50.656;7.568;2022-07-29T02:08:50;15.80;1.00
5617;DHT22;2830;50.656;7.568;2022-07-29T02:11:17;15.80;99.90
5617;DHT22;2830;50.656;7.568;2022-07-29T02:13:44;15.80;99.90
5617;DHT22;2830;50.656;7.568;2022-07-29T02:16:12;15.70;99.90
5617;DHT22;2830;50.656;7.568;2022-07-29T02:18:42;15.60;99.90
5617;DHT22;2830;50.656;7.568;2022-07-29T02:21:12;15.60;99.90
5617;DHT22;2830;50.656;7.568;2022-07-29T02:23:42;15.60;99.90
5617;DHT22;2830;50.656;7.568;2022-07-29T02:26:18;15.50;99.90
5617;DHT22;2830;50.656;7.568;2022-07-29T02:28:46;15.40;1.00
5617;DHT22;2830;50.656;7.568;2022-07-29T02:31:13;15.50;99.90
5617;DHT22;2830;50.656;7.568;2022-07-29T02:33:41;15.40;99.90
5617;DHT22;2830;50.656;7.568;2022-07-29T02:36:09;15.40;1.00
5617;DHT22;2830;50.656;7.568;2022-07-29T02:38:37;15.30;1.00
5617;DHT22;2830;50.656;7.568;2022-07-29T02:41:22;15.20;1.00
5617;DHT22;2830;50.656;7.568;2022-07-29T02:43:55;15.10;1.00
5617;DHT22;2830;50.656;7.568;2022-07-29T02:46:29;15.10;1.00
5617;DHT22;2830;50.656;7.568;2022-07-29T02:49:35;15.00;1.00
5617;DHT22;2830;50.656;7.568;2022-07-29T02:52:14;14.70;19.00
5617;DHT22;2830;50.656;7.568;2022-07-29T02:55:15;14.70;99.90
5617;DHT22;2830;50.656;7.568;2022-07-29T02:57:48;14.60;99.90
5617;DHT22;2830;50.656;7.568;2022-07-29T03:00:22;14.60;22.70
5617;DHT22;2830;50.656;7.568;2022-07-29T03:02:52;14.50;1.00
5617;DHT22;2830;50.656;7.568;2022-07-29T03:05:21;14.50;1.00
5617;DHT22;2830;50.656;7.568;2022-07-29T03:07:55;14.30;1.00
5617;DHT22;2830;50.656;7.568;2022-07-29T03:10:25;14.30;99.90
5617;DHT22;2830;50.656;7.568;2022-07-29T03:12:53;14.20;99.90
5617;DHT22;2830;50.656;7.568;2022-07-29T03:15:20;14.30;99.90
5617;DHT22;2830;50.656;7.568;2022-07-29T03:17:50;14.20;99.90
5617;DHT22;2830;50.656;7.568;2022-07-29T03:20:18;14.20;99.90
5617;DHT22;2830;50.656;7.568;2022-07-29T03:22:45;14.30;77.40
5617;DHT22;2830;50.656;7.568;2022-07-29T03:25:18;14.20;99.90
5617;DHT22;2830;50.656;7.568;2022-07-29T03:27:47;14.20;99.90
5617;DHT22;2830;50.656;7.568;2022-07-29T03:30:14;14.20;63.10
5617;DHT22;2830;50.656;7.568;2022-07-29T03:32:47;14.10;99.90
5617;DHT22;2830;50.656;7.568;2022-07-29T03:35:14;14.00;99.90
5617;DHT22;2830;50.656;7.568;2022-07-29T03:37:43;13.90;99.90
5617;DHT22;2830;50.656;7.568;2022-07-29T03:40:13;13.80;98.20
5617;DHT22;2830;50.656;7.568;2022-07-29T03:42:42;13.70;99.90
5617;DHT22;2830;50.656;7.568;2022-07-29T03:45:13;13.80;99.90
5617;DHT22;2830;50.656;7.568;2022-07-29T03:47:46;13.80;99.90
5617;DHT22;2830;50.656;7.568;2022-07-29T03:50:18;13.70;60.60
5617;DHT22;2830;50.656;7.568;2022-07-29T03:52:47;13.70;99.90
5617;DHT22;2830;50.656;7.568;2022-07-29T03:55:15;13.60;99.90
5617;DHT22;2830;50.656;7.568;2022-07-29T03:57:48;13.70;99.90
5617;DHT22;2830;50.656;7.568;2022-07-29T04:00:15;13.60;99.90
5617;DHT22;2830;50.656;7.568;2022-07-29T04:02:43;13.50;99.90
5617;DHT22;2830;50.656;7.568;2022-07-29T04:05:15;13.50;99.90
5617;DHT22;2830;50.656;7.568;2022-07-29T04:07:45;13.60;99.90
5617;DHT22;2830;50.656;7.568;2022-07-29T04:10:13;13.60;99.90
5617;DHT22;2830;50.656;7.568;2022-07-29T04:12:48;13.70;99.90
5617;DHT22;2830;50.656;7.568;2022-07-29T04:15:15;13.60;99.90
5617;DHT22;2830;50.656;7.568;2022-07-29T04:17:42;13.60;88.80
5617;DHT22;2830;50.656;7.568;2022-07-29T04:20:10;13.60;99.90
5617;DHT22;2830;50.656;7.568;2022-07-29T04:22:42;13.70;99.90
5617;DHT22;2830;50.656;7.568;2022-07-29T04:25:09;13.80;99.90
5617;DHT22;2830;50.656;7.568;2022-07-29T04:27:36;13.80;99.90
5617;DHT22;2830;50.656;7.568;2022-07-29T04:30:26;13.90;99.90
5617;DHT22;2830;50.656;7.568;2022-07-29T04:32:53;14.00;99.90
5617;DHT22;2830;50.656;7.568;2022-07-29T04:35:20;14.10;1.00
5617;DHT22;2830;50.656;7.568;2022-07-29T04:37:46;14.20;1.00
5617;DHT22;2830;50.656;7.568;2022-07-29T04:40:13;14.20;1.00
5617;DHT22;2830;50.656;7.568;2022-07-29T04:42:40;14.30;1.00
5617;DHT22;2830;50.656;7.568;2022-07-29T04:45:13;14.30;1.00
5617;DHT22;2830;50.656;7.568;2022-07-29T04:47:41;14.40;1.00
5617;DHT22;2830;50.656;7.568;2022-07-29T04:50:09;14.40;1.00
5617;DHT22;2830;50.656;7.568;2022-07-29T04:52:36;14.30;99.90
5617;DHT22;2830;50.656;7.568;2022-07-29T04:55:04;14.20;1.00
5617;DHT22;2830;50.656;7.568;2022-07-29T04:57:31;14.30;91.40
5617;DHT22;2830;50.656;7.568;2022-07-29T04:59:57;14.30;1.00
5617;DHT22;2830;50.656;7.568;2022-07-29T05:02:24;14.40;1.00
5617;DHT22;2830;50.656;7.568;2022-07-29T05:04:51;14.40;9.00
5617;DHT22;2830;50.656;7.568;2022-07-29T05:07:17;14.50;91.00
5617;DHT22;2830;50.656;7.568;2022-07-29T05:09:44;14.60;1.00
5617;DHT22;2830;50.656;7.568;2022-07-29T05:12:11;14.70;1.00
5617;DHT22;2830;50.656;7.568;2022-07-29T05:14:39;14.60;1.00
5617;DHT22;2830;50.656;7.568;2022-07-29T05:17:06;14.70;1.00
5617;DHT22;2830;50.656;7.568;2022-07-29T05:19:32;14.80;99.90
5617;DHT22;2830;50.656;7.568;2022-07-29T05:22:05;14.70;99.90
5617;DHT22;2830;50.656;7.568;2022-07-29T05:24:31;14.70;99.90
5617;DHT22;2830;50.656;7.568;2022-07-29T05:26:58;14.90;1.00
5617;DHT22;2830;50.656;7.568;2022-07-29T05:29:25;15.10;1.00
5617;DHT22;2830;50.656;7.568;2022-07-29T05:32:10;15.20;98.30
5617;DHT22;2830;50.656;7.568;2022-07-29T05:34:37;15.20;1.00
5617;DHT22;2830;50.656;7.568;2022-07-29T05:37:17;15.40;99.90
5617;DHT22;2830;50.656;7.568;2022-07-29T05:39:44;15.80;1.00
5617;DHT22;2830;50.656;7.568;2022-07-29T05:42:15;16.70;1.00
5617;DHT22;2830;50.656;7.568;2022-07-29T05:44:43;17.30;96.90
5617;DHT22;2830;50.656;7.568;2022-07-29T05:47:11;17.90;1.00
5617;DHT22;2830;50.656;7.568;2022-07-29T05:49:38;18.50;1.00
5617;DHT22;2830;50.656;7.568;2022-07-29T05:52:05;18.90;1.00
5617;DHT22;2830;50.656;7.568;2022-07-29T05:54:31;19.20;99.90
5617;DHT22;2830;50.656;7.568;2022-07-29T05:56:58;18.60;1.00
5617;DHT22;2830;50.656;7.568;2022-07-29T05:59:25;18.30;1.00
5617;DHT22;2830;50.656;7.568;2022-07-29T06:01:56;17.90;99.90
5617;DHT22;2830;50.656;7.568;2022-07-29T06:04:23;18.00;1.00
5617;DHT22;2830;50.656;7.568;2022-07-29T06:06:50;18.20;99.90
5617;DHT22;2830;50.656;7.568;2022-07-29T06:09:17;18.30;1.00
5617;DHT22;2830;50.656;7.568;2022-07-29T06:11:44;18.30;1.00
5617;DHT22;2830;50.656;7.568;2022-07-29T06:14:11;18.40;1.00
5617;DHT22;2830;50.656;7.568;2022-07-29T06:16:37;18.60;99.90
5617;DHT22;2830;50.656;7.568;2022-07-29T06:19:04;18.50;1.00
5617;DHT22;2830;50.656;7.568;2022-07-29T06:21:31;18.30;1.00
5617;DHT22;2830;50.656;7.568;2022-07-29T06:23:58;18.10;1.00
5617;DHT22;2830;50.656;7.568;2022-07-29T06:26:24;18.40;1.00
5617;DHT22;2830;50.656;7.568;2022-07-29T06:28:56;18.60;1.00
5617;DHT22;2830;50.656;7.568;2022-07-29T06:31:23;18.80;1.00
5617;DHT22;2830;50.656;7.568;2022-07-29T06:33:50;19.00;1.00
5617;DHT22;2830;50.656;7.568;2022-07-29T06:36:20;19.10;1.00
5617;DHT22;2830;50.656;7.568;2022-07-29T06:38:48;19.30;1.00
5617;DHT22;2830;50.656;7.568;2022-07-29T06:41:17;19.30;1.00
5617;DHT22;2830;50.656;7.568;2022-07-29T06:43:45;19.40;1.00
5617;DHT22;2830;50.656;7.568;2022-07-29T06:46:21;19.60;99.90
5617;DHT22;2830;50.656;7.568;2022-07-29T06:48:51;19.70;99.90
5617;DHT22;2830;50.656;7.568;2022-07-29T06:51:19;19.80;99.90
5617;DHT22;2830;50.656;7.568;2022-07-29T06:53:50;20.00;99.90
5617;DHT22;2830;50.656;7.568;2022-07-29T06:56:32;20.10;99.90
5617;DHT22;2830;50.656;7.568;2022-07-29T06:59:06;19.80;99.90
5617;DHT22;2830;50.656;7.568;2022-07-29T07:01:33;19.80;99.90
5617;DHT22;2830;50.656;7.568;2022-07-29T07:03:59;19.80;99.90
5617;DHT22;2830;50.656;7.568;2022-07-29T07:06:31;19.60;99.90
5617;DHT22;2830;50.656;7.568;2022-07-29T07:08:58;20.10;99.90
5617;DHT22;2830;50.656;7.568;2022-07-29T07:11:25;20.40;99.90
5617;DHT22;2830;50.656;7.568;2022-07-29T07:13:52;20.60;99.90
5617;DHT22;2830;50.656;7.568;2022-07-29T07:16:18;20.90;99.90
5617;DHT22;2830;50.656;7.568;2022-07-29T07:18:45;20.80;99.90
5617;DHT22;2830;50.656;7.568;2022-07-29T07:21:12;20.90;99.90
5617;DHT22;2830;50.656;7.568;2022-07-29T07:23:45;21.50;99.90
5617;DHT22;2830;50.656;7.568;2022-07-29T07:26:12;21.80;99.90
5617;DHT22;2830;50.656;7.568;2022-07-29T07:28:38;22.10;99.90
5617;DHT22;2830;50.656;7.568;2022-07-29T07:31:05;22.40;99.90
5617;DHT22;2830;50.656;7.568;2022-07-29T07:33:32;23.10;99.90
5617;DHT22;2830;50.656;7.568;2022-07-29T07:35:58;23.50;99.60
5617;DHT22;2830;50.656;7.568;2022-07-29T07:38:25;24.30;66.70
5617;DHT22;2830;50.656;7.568;2022-07-29T07:40:52;24.40;51.50
5617;DHT22;2830;50.656;7.568;2022-07-29T07:43:18;24.90;43.30
5617;DHT22;2830;50.656;7.568;2022-07-29T07:45:45;25.20;36.90
5617;DHT22;2830;50.656;7.568;2022-07-29T07:48:12;24.70;29.50
5617;DHT22;2830;50.656;7.568;2022-07-29T07:50:39;24.70;28.30
5617;DHT22;2830;50.656;7.568;2022-07-29T07:53:05;24.80;24.80
5617;DHT22;2830;50.656;7.568;2022-07-29T07:55:32;24.90;26.80
5617;DHT22;2830;50.656;7.568;2022-07-29T07:58:19;24.80;25.00
5617;DHT22;2830;50.656;7.568;2022-07-29T08:00:46;25.00;21.70
5617;DHT22;2830;50.656;7.568;2022-07-29T08:03:13;25.10;21.90
5617;DHT22;2830;50.656;7.568;2022-07-29T08:05:43;25.20;19.90
5617;DHT22;2830;50.656;7.568;2022-07-29T08:08:10;25.10;21.80
5617;DHT22;2830;50.656;7.568;2022-07-29T08:10:36;25.10;17.60
5617;DHT22;2830;50.656;7.568;2022-07-29T08:13:24;25.30;20.60
5617;DHT22;2830;50.656;7.568;2022-07-29T08:15:51;25.80;17.60
5617;DHT22;2830;50.656;7.568;2022-07-29T08:18:25;26.50;17.60
5617;DHT22;2830;50.656;7.568;2022-07-29T08:20:52;27.00;12.30
5617;DHT22;2830;50.656;7.568;2022-07-29T08:23:19;27.60;11.70
5617;DHT22;2830;50.656;7.568;2022-07-29T08:25:46;28.60;10.00
5617;DHT22;2830;50.656;7.568;2022-07-29T08:28:16;28.70;4.10
5617;DHT22;2830;50.656;7.568;2022-07-29T08:30:43;28.70;2.60
5617;DHT22;2830;50.656;7.568;2022-07-29T08:33:09;29.20;3.70
5617;DHT22;2830;50.656;7.568;2022-07-29T08:35:36;29.80;2.40
5617;DHT22;2830;50.656;7.568;2022-07-29T08:38:05;30.50;1.00
5617;DHT22;2830;50.656;7.568;2022-07-29T08:40:31;30.80;1.00
5617;DHT22;2830;50.656;7.568;2022-07-29T08:43:06;30.70;1.00
5617;DHT22;2830;50.656;7.568;2022-07-29T08:45:45;31.20;1.00
5617;DHT22;2830;50.656;7.568;2022-07-29T08:48:16;31.20;1.00
5617;DHT22;2830;50.656;7.568;2022-07-29T08:50:43;31.50;1.00
5617;DHT22;2830;50.656;7.568;2022-07-29T08:53:14;31.90;1.00
5617;DHT22;2830;50.656;7.568;2022-07-29T08:55:43;32.00;1.00
5617;DHT22;2830;50.656;7.568;2022-07-29T08:58:13;32.00;1.00
5617;DHT22;2830;50.656;7.568;2022-07-29T09:00:46;32.50;1.00
5617;DHT22;2830;50.656;7.568;2022-07-29T09:03:18;33.10;1.00
5617;DHT22;2830;50.656;7.568;2022-07-29T09:05:46;33.50;1.00
5617;DHT22;2830;50.656;7.568;2022-07-29T09:08:15;34.30;1.00
5617;DHT22;2830;50.656;7.568;2022-07-29T09:10:42;34.30;1.00
5617;DHT22;2830;50.656;7.568;2022-07-29T09:13:09;34.30;1.00
5617;DHT22;2830;50.656;7.568;2022-07-29T09:15:36;33.70;1.00
5617;DHT22;2830;50.656;7.568;2022-07-29T09:18:02;33.30;1.00
5617;DHT22;2830;50.656;7.568;2022-07-29T09:20:29;32.60;1.00
5617;DHT22;2830;50.656;7.568;2022-07-29T09:23:16;32.40;1.00
5617;DHT22;2830;50.656;7.568;2022-07-29T09:25:50;32.50;1.00
5617;DHT22;2830;50.656;7.568;2022-07-29T09:28:17;33.10;1.00
5617;DHT22;2830;50.656;7.568;2022-07-29T09:30:56;33.40;1.00
5617;DHT22;2830;50.656;7.568;2022-07-29T09:33:33;33.90;1.00
5617;DHT22;2830;50.656;7.568;2022-07-29T09:36:08;33.60;1.00
5617;DHT22;2830;50.656;7.568;2022-07-29T09:38:35;33.30;1.00
5617;DHT22;2830;50.656;7.568;2022-07-29T09:41:04;33.50;1.00
5617;DHT22;2830;50.656;7.568;2022-07-29T09:43:32;33.40;1.00
5617;DHT22;2830;50.656;7.568;2022-07-29T09:46:13;33.70;1.00
5617;DHT22;2830;50.656;7.568;2022-07-29T09:48:40;33.60;1.00
5617;DHT22;2830;50.656;7.568;2022-07-29T09:51:17;33.90;1.00
5617;DHT22;2830;50.656;7.568;2022-07-29T09:53:48;34.60;1.00
5617;DHT22;2830;50.656;7.568;2022-07-29T09:56:18;34.90;1.00
5617;DHT22;2830;50.656;7.568;2022-07-29T09:58:45;35.00;1.00
5617;DHT22;2830;50.656;7.568;2022-07-29T10:01:12;34.80;1.00
5617;DHT22;2830;50.656;7.568;2022-07-29T10:03:54;34.90;1.00
5617;DHT22;2830;50.656;7.568;2022-07-29T10:06:21;35.30;1.00
5617;DHT22;2830;50.656;7.568;2022-07-29T10:08:47;35.70;1.00
5617;DHT22;2830;50.656;7.568;2022-07-29T10:11:17;36.30;1.00
5617;DHT22;2830;50.656;7.568;2022-07-29T10:13:46;36.20;1.00
5617;DHT22;2830;50.656;7.568;2022-07-29T10:16:15;36.00;1.00
5617;DHT22;2830;50.656;7.568;2022-07-29T10:18:43;35.50;1.00
5617;DHT22;2830;50.656;7.568;2022-07-29T10:21:10;34.50;1.00
5617;DHT22;2830;50.656;7.568;2022-07-29T10:23:58;33.60;1.00
5617;DHT22;2830;50.656;7.568;2022-07-29T10:26:27;33.30;1.00
5617;DHT22;2830;50.656;7.568;2022-07-29T10:28:55;33.70;1.00
5617;DHT22;2830;50.656;7.568;2022-07-29T10:31:29;33.90;1.00
5617;DHT22;2830;50.656;7.568;2022-07-29T10:34:23;34.50;1.00
5617;DHT22;2830;50.656;7.568;2022-07-29T10:37:18;34.60;1.00
5617;DHT22;2830;50.656;7.568;2022-07-29T10:40:06;34.40;1.00
5617;DHT22;2830;50.656;7.568;2022-07-29T10:43:22;33.60;1.00
5617;DHT22;2830;50.656;7.568;2022-07-29T10:45:56;33.30;1.00
5617;DHT22;2830;50.656;7.568;2022-07-29T10:48:23;32.60;1.00
5617;DHT22;2830;50.656;7.568;2022-07-29T10:51:02;33.20;1.00
5617;DHT22;2830;50.656;7.568;2022-07-29T10:53:50;34.40;1.00
5617;DHT22;2830;50.656;7.568;2022-07-29T10:56:25;35.10;1.00
5617;DHT22;2830;50.656;7.568;2022-07-29T11:01:47;35.50;1.00
5617;DHT22;2830;50.656;7.568;2022-07-29T11:05:02;35.40;1.00
5617;DHT22;2830;50.656;7.568;2022-07-29T11:07:30;35.40;1.00
5617;DHT22;2830;50.656;7.568;2022-07-29T11:15:14;37.00;1.00
5617;DHT22;2830;50.656;7.568;2022-07-29T11:20:48;36.40;1.00
5617;DHT22;2830;50.656;7.568;2022-07-29T11:23:29;34.30;1.00
5617;DHT22;2830;50.656;7.568;2022-07-29T11:28:59;32.40;1.00
5617;DHT22;2830;50.656;7.568;2022-07-29T11:31:38;31.90;1.00
5617;DHT22;2830;50.656;7.568;2022-07-29T11:34:21;31.70;1.00
5617;DHT22;2830;50.656;7.568;2022-07-29T11:45:14;31.40;1.00
5617;DHT22;2830;50.656;7.568;2022-07-29T11:48:03;32.90;1.00
5617;DHT22;2830;50.656;7.568;2022-07-29T11:50:51;34.20;1.00
5617;DHT22;2830;50.656;7.568;2022-07-29T11:53:18;35.20;1.00
5617;DHT22;2830;50.656;7.568;2022-07-29T11:55:47;35.40;1.00
5617;DHT22;2830;50.656;7.568;2022-07-29T11:58:24;35.30;1.00
5617;DHT22;2830;50.656;7.568;2022-07-29T12:00:52;35.20;1.00
5617;DHT22;2830;50.656;7.568;2022-07-29T12:03:26;35.20;1.00
5617;DHT22;2830;50.656;7.568;2022-07-29T12:06:01;35.60;1.00
5617;DHT22;2830;50.656;7.568;2022-07-29T12:08:28;36.30;1.00
5617;DHT22;2830;50.656;7.568;2022-07-29T12:10:55;36.60;1.00
5617;DHT22;2830;50.656;7.568;2022-07-29T12:13:22;36.50;1.00
5617;DHT22;2830;50.656;7.568;2022-07-29T12:16:03;36.00;1.00
5617;DHT22;2830;50.656;7.568;2022-07-29T12:18:31;35.30;1.00
5617;DHT22;2830;50.656;7.568;2022-07-29T12:20:59;35.20;1.00
5617;DHT22;2830;50.656;7.568;2022-07-29T12:23:30;34.60;1.00
5617;DHT22;2830;50.656;7.568;2022-07-29T12:26:04;34.50;1.00
5617;DHT22;2830;50.656;7.568;2022-07-29T12:28:39;34.90;1.00
5617;DHT22;2830;50.656;7.568;2022-07-29T12:31:11;34.10;1.00
5617;DHT22;2830;50.656;7.568;2022-07-29T12:33:39;33.70;1.00
5617;DHT22;2830;50.656;7.568;2022-07-29T12:36:06;33.30;1.00
5617;DHT22;2830;50.656;7.568;2022-07-29T12:38:42;33.60;1.00
5617;DHT22;2830;50.656;7.568;2022-07-29T12:41:10;33.90;1.00
5617;DHT22;2830;50.656;7.568;2022-07-29T12:43:36;33.70;1.00
5617;DHT22;2830;50.656;7.568;2022-07-29T12:46:14;32.80;1.00
5617;DHT22;2830;50.656;7.568;2022-07-29T12:48:42;31.90;1.00
5617;DHT22;2830;50.656;7.568;2022-07-29T12:51:10;31.60;1.00
5617;DHT22;2830;50.656;7.568;2022-07-29T12:53:38;31.80;1.00
5617;DHT22;2830;50.656;7.568;2022-07-29T12:56:06;32.20;1.00
5617;DHT22;2830;50.656;7.568;2022-07-29T12:59:14;32.50;1.00
5617;DHT22;2830;50.656;7.568;2022-07-29T13:01:41;32.30;1.00
5617;DHT22;2830;50.656;7.568;2022-07-29T13:04:08;32.50;1.00
5617;DHT22;2830;50.656;7.568;2022-07-29T13:06:45;32.20;1.00
5617;DHT22;2830;50.656;7.568;2022-07-29T13:09:20;31.80;1.00
5617;DHT22;2830;50.656;7.568;2022-07-29T13:11:51;31.80;1.00
5617;DHT22;2830;50.656;7.568;2022-07-29T13:14:57;32.00;1.00
5617;DHT22;2830;50.656;7.568;2022-07-29T13:17:23;31.80;1.00
5617;DHT22;2830;50.656;7.568;2022-07-29T13:19:53;31.70;1.00
5617;DHT22;2830;50.656;7.568;2022-07-29T13:22:24;31.70;1.00
5617;DHT22;2830;50.656;7.568;2022-07-29T13:24:55;31.90;1.00
5617;DHT22;2830;50.656;7.568;2022-07-29T13:27:30;32.30;1.00
5617;DHT22;2830;50.656;7.568;2022-07-29T13:30:00;32.40;1.00
5617;DHT22;2830;50.656;7.568;2022-07-29T13:32:29;32.50;1.00
5617;DHT22;2830;50.656;7.568;2022-07-29T13:34:56;32.30;1.00
5617;DHT22;2830;50.656;7.568;2022-07-29T13:37:24;32.00;1.00
5617;DHT22;2830;50.656;7.568;2022-07-29T13:39:50;31.80;1.00
5617;DHT22;2830;50.656;7.568;2022-07-29T13:42:19;31.50;1.00
5617;DHT22;2830;50.656;7.568;2022-07-29T13:44:45;31.50;1.00
5617;DHT22;2830;50.656;7.568;2022-07-29T13:47:12;31.40;1.00
5617;DHT22;2830;50.656;7.568;2022-07-29T13:49:39;31.00;1.00
5617;DHT22;2830;50.656;7.568;2022-07-29T13:52:05;30.80;1.00
5617;DHT22;2830;50.656;7.568;2022-07-29T13:54:34;30.70;1.00
5617;DHT22;2830;50.656;7.568;2022-07-29T13:57:08;30.70;1.00
5617;DHT22;2830;50.656;7.568;2022-07-29T13:59:35;30.50;1.00
5617;DHT22;2830;50.656;7.568;2022-07-29T14:02:02;30.30;1.00
5617;DHT22;2830;50.656;7.568;2022-07-29T14:04:29;29.90;1.00
5617;DHT22;2830;50.656;7.568;2022-07-29T14:06:56;30.00;1.00
5617;DHT22;2830;50.656;7.568;2022-07-29T14:09:22;29.80;1.00
5617;DHT22;2830;50.656;7.568;2022-07-29T14:11:49;29.70;1.00
5617;DHT22;2830;50.656;7.568;2022-07-29T14:14:17;29.70;1.00
5617;DHT22;2830;50.656;7.568;2022-07-29T14:16:44;29.50;1.00
5617;DHT22;2830;50.656;7.568;2022-07-29T14:19:17;29.50;1.00
5617;DHT22;2830;50.656;7.568;2022-07-29T14:21:44;29.70;1.00
5617;DHT22;2830;50.656;7.568;2022-07-29T14:24:12;30.00;1.00
5617;DHT22;2830;50.656;7.568;2022-07-29T14:26:47;30.10;1.00
5617;DHT22;2830;50.656;7.568;2022-07-29T14:29:14;30.00;1.00
5617;DHT22;2830;50.656;7.568;2022-07-29T14:31:41;29.70;1.00
5617;DHT22;2830;50.656;7.568;2022-07-29T14:34:09;29.70;1.00
5617;DHT22;2830;50.656;7.568;2022-07-29T14:36:36;29.60;1.00
5617;DHT22;2830;50.656;7.568;2022-07-29T14:39:03;29.20;1.00
5617;DHT22;2830;50.656;7.568;2022-07-29T14:41:30;28.80;1.00
5617;DHT22;2830;50.656;7.568;2022-07-29T14:43:57;28.60;1.00
5617;DHT22;2830;50.656;7.568;2022-07-29T14:46:27;28.40;1.00
5617;DHT22;2830;50.656;7.568;2022-07-29T14:48:54;28.60;1.00
5617;DHT22;2830;50.656;7.568;2022-07-29T14:51:21;28.70;1.00
5617;DHT22;2830;50.656;7.568;2022-07-29T14:53:48;28.70;1.00
5617;DHT22;2830;50.656;7.568;2022-07-29T14:56:14;28.70;1.00
5617;DHT22;2830;50.656;7.568;2022-07-29T14:59:01;28.90;1.00
5617;DHT22;2830;50.656;7.568;2022-07-29T15:01:28;29.10;1.00
5617;DHT22;2830;50.656;7.568;2022-07-29T15:03:55;29.00;1.00
5617;DHT22;2830;50.656;7.568;2022-07-29T15:06:26;28.90;1.00
5617;DHT22;2830;50.656;7.568;2022-07-29T15:08:52;28.60;1.00
5617;DHT22;2830;50.656;7.568;2022-07-29T15:11:19;28.60;1.00
5617;DHT22;2830;50.656;7.568;2022-07-29T15:13:46;28.40;1.00
5617;DHT22;2830;50.656;7.568;2022-07-29T15:16:12;28.20;1.00
5617;DHT22;2830;50.656;7.568;2022-07-29T15:18:39;28.40;1.00
5617;DHT22;2830;50.656;7.568;2022-07-29T15:21:06;28.50;1.00
5617;DHT22;2830;50.656;7.568;2022-07-29T15:23:34;28.30;1.00
5617;DHT22;2830;50.656;7.568;2022-07-29T15:26:04;28.10;1.00
5617;DHT22;2830;50.656;7.568;2022-07-29T15:28:31;28.00;1.00
5617;DHT22;2830;50.656;7.568;2022-07-29T15:30:57;28.00;1.00
5617;DHT22;2830;50.656;7.568;2022-07-29T15:33:25;27.80;1.00
5617;DHT22;2830;50.656;7.568;2022-07-29T15:35:52;27.80;1.00
5617;DHT22;2830;50.656;7.568;2022-07-29T15:38:18;27.70;1.00
5617;DHT22;2830;50.656;7.568;2022-07-29T15:40:54;27.50;1.00
5617;DHT22;2830;50.656;7.568;2022-07-29T15:43:21;27.50;1.00
5617;DHT22;2830;50.656;7.568;2022-07-29T15:45:47;27.40;1.00
5617;DHT22;2830;50.656;7.568;2022-07-29T15:48:33;27.30;1.00
5617;DHT22;2830;50.656;7.568;2022-07-29T15:51:02;27.40;1.00
5617;DHT22;2830;50.656;7.568;2022-07-29T15:53:29;27.40;1.00
5617;DHT22;2830;50.656;7.568;2022-07-29T15:55:56;27.40;1.00
5617;DHT22;2830;50.656;7.568;2022-07-29T15:58:22;27.40;1.00
5617;DHT22;2830;50.656;7.568;2022-07-29T16:00:49;27.30;1.00
5617;DHT22;2830;50.656;7.568;2022-07-29T16:03:16;27.40;1.00
5617;DHT22;2830;50.656;7.568;2022-07-29T16:05:43;27.50;1.00
5617;DHT22;2830;50.656;7.568;2022-07-29T16:08:10;27.40;1.00
5617;DHT22;2830;50.656;7.568;2022-07-29T16:10:36;27.20;1.00
5617;DHT22;2830;50.656;7.568;2022-07-29T16:13:03;27.10;1.00
5617;DHT22;2830;50.656;7.568;2022-07-29T16:15:30;26.90;1.00
5617;DHT22;2830;50.656;7.568;2022-07-29T16:17:56;26.70;1.00
5617;DHT22;2830;50.656;7.568;2022-07-29T16:20:23;26.60;1.00
5617;DHT22;2830;50.656;7.568;2022-07-29T16:22:50;26.30;1.00
5617;DHT22;2830;50.656;7.568;2022-07-29T16:25:17;26.40;1.00
5617;DHT22;2830;50.656;7.568;2022-07-29T16:27:43;26.20;1.00
5617;DHT22;2830;50.656;7.568;2022-07-29T16:30:10;26.30;1.00
5617;DHT22;2830;50.656;7.568;2022-07-29T16:32:37;26.10;1.00
5617;DHT22;2830;50.656;7.568;2022-07-29T16:35:08;26.10;1.00
5617;DHT22;2830;50.656;7.568;2022-07-29T16:37:35;26.00;1.00
5617;DHT22;2830;50.656;7.568;2022-07-29T16:40:04;25.90;1.00
5617;DHT22;2830;50.656;7.568;2022-07-29T16:42:32;26.00;1.00
5617;DHT22;2830;50.656;7.568;2022-07-29T16:45:12;25.70;1.00
5617;DHT22;2830;50.656;7.568;2022-07-29T16:47:39;25.60;1.00
5617;DHT22;2830;50.656;7.568;2022-07-29T16:50:06;25.60;1.00
5617;DHT22;2830;50.656;7.568;2022-07-29T16:52:33;25.70;1.00
5617;DHT22;2830;50.656;7.568;2022-07-29T16:55:00;25.80;1.00
5617;DHT22;2830;50.656;7.568;2022-07-29T16:57:26;25.80;1.00
5617;DHT22;2830;50.656;7.568;2022-07-29T16:59:53;25.80;1.00
5617;DHT22;2830;50.656;7.568;2022-07-29T17:02:20;25.70;1.00
5617;DHT22;2830;50.656;7.568;2022-07-29T17:04:46;25.60;1.00
5617;DHT22;2830;50.656;7.568;2022-07-29T17:07:13;25.60;1.00